createdAt,value
2019-03-15T00:01:39.764Z,5.33
2019-03-15T00:04:07.991Z,4.65
2019-03-15T00:06:36.199Z,4.47
2019-03-15T00:09:07.677Z,4.10
2019-03-15T00:11:35.917Z,4.53
2019-03-15T00:14:04.185Z,4.10
2019-03-15T00:16:32.404Z,4.10
2019-03-15T00:19:00.612Z,4.12
2019-03-15T00:21:28.854Z,4.62
2019-03-15T00:23:57.062Z,4.12
2019-03-15T00:26:25.272Z,4.55
2019-03-15T00:28:53.478Z,4.35
2019-03-15T00:31:21.684Z,4.92
2019-03-15T00:33:50.673Z,4.47
2019-03-15T00:36:18.878Z,4.40
2019-03-15T00:38:47.109Z,4.92
2019-03-15T00:41:15.317Z,5.03
2019-03-15T00:43:43.540Z,4.40
2019-03-15T00:46:11.742Z,5.03
2019-03-15T00:48:39.959Z,4.47
2019-03-15T00:51:08.195Z,4.28
2019-03-15T00:53:36.404Z,4.35
2019-03-15T00:56:04.618Z,4.13
2019-03-15T00:58:32.826Z,4.22
2019-03-15T01:01:01.030Z,4.67
2019-03-15T01:03:29.238Z,4.70
2019-03-15T01:05:57.546Z,4.70
2019-03-15T01:08:25.775Z,4.43
2019-03-15T01:10:53.976Z,4.58
2019-03-15T01:13:22.191Z,4.20
2019-03-15T01:15:50.411Z,4.90
2019-03-15T01:18:18.650Z,4.65
2019-03-15T01:20:46.832Z,5.05
2019-03-15T01:23:15.042Z,4.60
2019-03-15T01:25:43.292Z,4.35
2019-03-15T01:28:11.494Z,4.62
2019-03-15T01:30:39.705Z,4.35
2019-03-15T01:33:07.921Z,4.50
2019-03-15T01:35:36.125Z,4.78
2019-03-15T01:38:04.358Z,5.22
2019-03-15T01:40:32.564Z,5.00
2019-03-15T01:43:00.804Z,4.83
2019-03-15T01:45:29.003Z,4.97
2019-03-15T01:47:57.203Z,5.05
2019-03-15T01:50:25.422Z,4.55
2019-03-15T01:52:53.631Z,4.53
2019-03-15T01:55:21.862Z,4.40
2019-03-15T01:57:50.069Z,4.90
2019-03-15T02:00:18.293Z,5.42
2019-03-15T02:02:46.964Z,4.60
2019-03-15T02:05:15.172Z,4.58
2019-03-15T02:07:43.397Z,4.53
2019-03-15T02:10:11.599Z,4.72
2019-03-15T02:12:39.827Z,4.92
2019-03-15T02:15:10.713Z,4.62
2019-03-15T02:17:39.077Z,4.90
2019-03-15T02:20:08.351Z,5.22
2019-03-15T02:22:36.558Z,4.75
2019-03-15T02:25:05.134Z,4.72
2019-03-15T02:27:33.347Z,4.42
2019-03-15T02:30:01.562Z,4.35
2019-03-15T02:32:29.778Z,4.03
2019-03-15T02:34:57.991Z,4.73
2019-03-15T02:37:26.191Z,4.35
2019-03-15T02:39:54.432Z,4.03
2019-03-15T02:42:22.658Z,4.20
2019-03-15T02:44:50.850Z,4.35
2019-03-15T02:47:19.641Z,4.33
2019-03-15T02:49:48.347Z,4.40
2019-03-15T02:52:17.125Z,4.70
2019-03-15T02:54:45.350Z,5.03
2019-03-15T02:57:13.565Z,5.17
2019-03-15T02:59:41.808Z,4.92
2019-03-15T03:02:10.067Z,4.45
2019-03-15T03:04:38.362Z,5.03
2019-03-15T03:07:06.597Z,5.10
2019-03-15T03:09:34.813Z,5.10
2019-03-15T03:12:03.030Z,5.50
2019-03-15T03:14:31.250Z,5.25
2019-03-15T03:16:59.472Z,4.67
2019-03-15T03:19:28.218Z,4.65
2019-03-15T03:21:56.580Z,5.40
2019-03-15T03:24:24.878Z,5.30
2019-03-15T03:26:53.080Z,4.78
2019-03-15T03:29:21.819Z,4.60
2019-03-15T03:31:50.497Z,4.22
2019-03-15T03:34:18.686Z,4.62
2019-03-15T03:36:47.386Z,3.85
2019-03-15T03:39:15.600Z,3.77
2019-03-15T03:41:43.804Z,4.58
2019-03-15T03:44:12.062Z,4.08
2019-03-15T03:46:40.270Z,4.60
2019-03-15T03:49:08.507Z,4.85
2019-03-15T03:51:36.717Z,4.83
2019-03-15T03:54:05.038Z,4.78
2019-03-15T03:56:33.238Z,4.90
2019-03-15T03:59:01.466Z,5.15
2019-03-15T04:01:29.712Z,4.85
2019-03-15T04:03:57.951Z,4.65
2019-03-15T04:06:26.359Z,5.17
2019-03-15T04:08:54.570Z,4.95
2019-03-15T04:11:22.792Z,5.45
2019-03-15T04:13:51.044Z,5.17
2019-03-15T04:16:19.240Z,5.33
2019-03-15T04:18:47.539Z,4.65
2019-03-15T04:21:15.759Z,5.45
2019-03-15T04:23:44.001Z,4.80
2019-03-15T04:26:12.217Z,4.97
2019-03-15T04:28:40.430Z,4.85
2019-03-15T04:31:08.639Z,4.97
2019-03-15T04:33:36.917Z,5.17
2019-03-15T04:36:05.086Z,5.08
2019-03-15T04:38:33.290Z,5.65
2019-03-15T04:41:01.511Z,6.15
2019-03-15T04:43:29.723Z,6.58
2019-03-15T04:45:57.944Z,7.45
2019-03-15T04:48:26.162Z,6.72
2019-03-15T04:50:54.376Z,8.15
2019-03-15T04:53:22.594Z,7.60
2019-03-15T04:55:50.802Z,8.20
2019-03-15T04:58:19.003Z,7.40
2019-03-15T05:00:47.660Z,7.62
2019-03-15T05:03:15.867Z,8.18
2019-03-15T05:05:44.102Z,7.28
2019-03-15T05:08:12.310Z,7.28
2019-03-15T05:10:40.532Z,7.83
2019-03-15T05:13:08.758Z,7.58
2019-03-15T05:15:36.960Z,7.83
2019-03-15T05:18:05.170Z,7.30
2019-03-15T05:20:33.403Z,8.28
2019-03-15T05:23:01.608Z,8.80
2019-03-15T05:25:30.133Z,7.65
2019-03-15T05:27:58.599Z,8.53
2019-03-15T05:30:26.804Z,7.00
2019-03-15T05:32:55.028Z,7.72
2019-03-15T05:35:23.246Z,8.03
2019-03-15T05:37:51.451Z,8.20
2019-03-15T05:40:19.686Z,7.97
2019-03-15T05:42:47.931Z,8.40
2019-03-15T05:45:16.136Z,8.95
2019-03-15T05:47:44.374Z,9.00
2019-03-15T05:50:12.932Z,7.70
2019-03-15T05:52:41.141Z,9.23
2019-03-15T05:55:14.067Z,9.08
2019-03-15T05:57:42.266Z,9.28
2019-03-15T06:00:15.416Z,9.03
2019-03-15T06:02:43.634Z,8.65
2019-03-15T06:05:11.847Z,9.98
2019-03-15T06:07:40.091Z,9.53
2019-03-15T06:10:13.229Z,8.93
2019-03-15T06:12:41.447Z,8.88
2019-03-15T06:15:10.927Z,9.35
2019-03-15T06:17:39.144Z,9.65
2019-03-15T06:20:13.656Z,9.75
2019-03-15T06:22:41.877Z,7.97
2019-03-15T06:25:11.144Z,9.03
2019-03-15T06:27:39.372Z,9.48
2019-03-15T06:30:13.156Z,9.13
2019-03-15T06:32:41.377Z,9.38
2019-03-15T06:35:09.602Z,9.28
2019-03-15T06:37:37.862Z,8.85
2019-03-15T06:40:08.420Z,8.93
2019-03-15T06:42:36.651Z,9.55
2019-03-15T06:45:13.224Z,9.18
2019-03-15T06:47:43.145Z,8.73
2019-03-15T06:50:11.375Z,8.53
2019-03-15T06:52:39.587Z,10.00
2019-03-15T06:55:08.530Z,8.90
2019-03-15T06:57:36.758Z,8.43
2019-03-15T07:00:08.169Z,9.50
2019-03-15T07:02:36.386Z,9.00
2019-03-15T07:05:06.345Z,9.43
2019-03-15T07:07:34.683Z,9.37
2019-03-15T07:10:02.972Z,8.80
2019-03-15T07:12:31.193Z,8.58
2019-03-15T07:14:59.412Z,8.95
2019-03-15T07:17:27.667Z,8.10
2019-03-15T07:19:55.844Z,8.25
2019-03-15T07:22:24.075Z,9.28
2019-03-15T07:24:52.297Z,8.10
2019-03-15T07:27:20.510Z,8.93
2019-03-15T07:29:48.725Z,8.60
2019-03-15T07:32:16.932Z,8.73
2019-03-15T07:34:45.158Z,8.63
2019-03-15T07:37:13.373Z,8.60
2019-03-15T07:39:41.629Z,8.43
2019-03-15T07:42:09.847Z,9.18
2019-03-15T07:44:38.098Z,9.20
2019-03-15T07:47:06.302Z,7.90
2019-03-15T07:49:34.586Z,8.20
2019-03-15T07:52:03.916Z,8.03
2019-03-15T07:54:37.977Z,8.85
2019-03-15T07:57:02.282Z,8.95
2019-03-15T07:59:30.522Z,9.10
2019-03-15T08:01:58.749Z,8.83
2019-03-15T08:04:26.953Z,9.53
2019-03-15T08:06:55.170Z,8.85
2019-03-15T08:09:23.394Z,8.58
2019-03-15T08:11:51.601Z,9.98
2019-03-15T08:14:19.825Z,9.10
2019-03-15T08:16:48.895Z,8.43
2019-03-15T08:19:17.109Z,9.73
2019-03-15T08:21:45.324Z,9.45
2019-03-15T08:24:13.538Z,10.15
2019-03-15T08:26:41.878Z,9.90
2019-03-15T08:29:10.218Z,9.80
2019-03-15T08:31:38.376Z,10.40
2019-03-15T08:34:06.596Z,10.10
2019-03-15T08:36:34.824Z,9.63
2019-03-15T08:39:03.410Z,10.15
2019-03-15T08:41:31.611Z,9.70
2019-03-15T08:43:59.865Z,9.65
2019-03-15T08:46:28.135Z,9.80
2019-03-15T08:48:56.352Z,9.48
2019-03-15T08:51:24.571Z,9.88
2019-03-15T08:53:52.779Z,9.58
2019-03-15T08:56:20.989Z,9.55
2019-03-15T08:58:49.195Z,9.05
2019-03-15T09:01:17.510Z,9.35
2019-03-15T09:03:45.822Z,9.80
2019-03-15T09:06:14.037Z,10.03
2019-03-15T09:08:42.256Z,9.80
2019-03-15T09:11:10.465Z,9.23
2019-03-15T09:13:38.681Z,9.33
2019-03-15T09:16:06.897Z,9.95
2019-03-15T09:18:35.103Z,8.50
2019-03-15T09:21:03.317Z,8.63
2019-03-15T09:23:31.527Z,9.53
2019-03-15T09:25:59.773Z,9.43
2019-03-15T09:28:27.974Z,9.45
2019-03-15T09:30:56.199Z,9.08
2019-03-15T09:33:24.439Z,9.53
2019-03-15T09:35:52.661Z,9.13
2019-03-15T09:38:20.878Z,9.85
2019-03-15T09:40:49.493Z,9.28
2019-03-15T09:43:17.717Z,10.20
2019-03-15T09:45:45.930Z,8.68
2019-03-15T09:48:14.167Z,9.23
2019-03-15T09:50:51.024Z,8.38
2019-03-15T09:53:12.314Z,8.78
2019-03-15T09:55:40.529Z,8.05
2019-03-15T09:58:08.736Z,7.87
2019-03-15T10:00:37.007Z,8.25
2019-03-15T10:03:05.196Z,8.33
2019-03-15T10:05:33.400Z,7.95
2019-03-15T10:08:01.609Z,8.63
2019-03-15T10:10:29.824Z,8.40
2019-03-15T10:13:05.955Z,8.67
2019-03-15T10:15:27.987Z,8.80
2019-03-15T10:17:56.191Z,7.58
2019-03-15T10:20:24.408Z,7.90
2019-03-15T10:23:05.567Z,7.47
2019-03-15T10:25:22.580Z,8.40
2019-03-15T10:27:50.788Z,7.70
2019-03-15T10:30:20.942Z,7.85
2019-03-15T10:32:49.898Z,8.00
2019-03-15T10:35:18.200Z,8.08
2019-03-15T10:37:46.406Z,8.33
2019-03-15T10:40:19.784Z,8.48
2019-03-15T10:42:48.032Z,7.97
2019-03-15T10:45:16.242Z,9.13
2019-03-15T10:47:44.454Z,8.98
2019-03-15T10:50:14.407Z,9.10
2019-03-15T10:52:42.627Z,9.20
2019-03-15T10:55:10.906Z,8.43
2019-03-15T10:57:39.112Z,9.00
2019-03-15T11:00:18.027Z,9.00
2019-03-15T11:02:46.255Z,9.43
2019-03-15T11:05:14.465Z,9.20
2019-03-15T11:07:42.692Z,9.60
2019-03-15T11:10:11.675Z,9.33
2019-03-15T11:12:39.875Z,8.68
2019-03-15T11:15:10.431Z,9.28
2019-03-15T11:17:38.757Z,9.43
2019-03-15T11:20:09.090Z,9.88
2019-03-15T11:22:37.354Z,9.97
2019-03-15T11:25:07.380Z,10.15
2019-03-15T11:27:35.676Z,10.03
2019-03-15T11:30:05.090Z,10.98
2019-03-15T11:32:33.304Z,11.73
2019-03-15T11:35:01.638Z,10.82
2019-03-15T11:37:29.857Z,11.85
2019-03-15T11:39:58.096Z,11.35
2019-03-15T11:42:26.317Z,10.70
2019-03-15T11:44:54.522Z,11.50
2019-03-15T11:47:22.747Z,11.75
2019-03-15T11:49:50.961Z,11.30
2019-03-15T11:52:19.176Z,11.70
2019-03-15T11:54:49.854Z,11.67
2019-03-15T11:57:17.346Z,11.60
2019-03-15T11:59:45.704Z,12.68
2019-03-15T12:02:14.077Z,11.70
2019-03-15T12:04:42.300Z,10.75
2019-03-15T12:07:10.691Z,11.45
2019-03-15T12:09:40.958Z,10.15
2019-03-15T12:12:08.889Z,11.70
2019-03-15T12:14:41.244Z,11.45
2019-03-15T12:17:07.045Z,10.23
2019-03-15T12:19:35.301Z,9.63
2019-03-15T12:22:06.565Z,10.10
2019-03-15T12:24:33.449Z,8.70
2019-03-15T12:27:01.664Z,9.00
2019-03-15T12:29:29.899Z,8.85
2019-03-15T12:31:58.122Z,9.53
2019-03-15T12:34:26.326Z,7.97
2019-03-15T12:36:54.533Z,8.05
2019-03-15T12:39:22.747Z,7.55
2019-03-15T12:41:50.954Z,8.08
2019-03-15T12:44:19.163Z,7.58
2019-03-15T12:46:47.454Z,7.75
2019-03-15T12:49:15.686Z,7.70
2019-03-15T12:51:43.885Z,7.70
2019-03-15T12:54:12.097Z,8.43
2019-03-15T12:56:52.863Z,7.17
2019-03-15T12:59:10.249Z,6.70
2019-03-15T13:01:38.537Z,7.40
2019-03-15T13:04:06.687Z,7.55
2019-03-15T13:06:34.932Z,7.10
2019-03-15T13:09:03.643Z,6.45
2019-03-15T13:11:31.864Z,7.60
2019-03-15T13:14:00.081Z,7.30
2019-03-15T13:16:28.356Z,7.40
2019-03-15T13:18:56.575Z,6.40
2019-03-15T13:21:24.855Z,5.80
2019-03-15T13:23:53.071Z,5.70
2019-03-15T13:26:21.281Z,5.47
2019-03-15T13:28:49.489Z,5.55
2019-03-15T13:31:17.724Z,6.00
2019-03-15T13:33:45.937Z,5.20
2019-03-15T13:36:14.208Z,5.05
2019-03-15T13:38:42.428Z,4.97
2019-03-15T13:41:10.644Z,5.10
2019-03-15T13:43:38.861Z,4.90
2019-03-15T13:46:07.080Z,5.23
2019-03-15T13:48:35.289Z,4.95
2019-03-15T13:51:03.509Z,5.00
2019-03-15T13:53:31.729Z,5.55
2019-03-15T13:55:59.949Z,5.53
2019-03-15T13:58:28.161Z,4.60
2019-03-15T14:00:56.376Z,5.45
2019-03-15T14:03:24.599Z,4.95
2019-03-15T14:05:52.821Z,5.20
2019-03-15T14:08:21.142Z,5.03
2019-03-15T14:10:49.949Z,4.90
2019-03-15T14:13:18.147Z,4.90
2019-03-15T14:15:46.363Z,5.50
2019-03-15T14:18:14.608Z,5.70
2019-03-15T14:20:42.814Z,5.75
2019-03-15T14:23:11.041Z,5.33
2019-03-15T14:25:39.279Z,5.58
2019-03-15T14:28:07.510Z,5.72
2019-03-15T14:30:36.584Z,6.17
2019-03-15T14:33:04.802Z,6.25
2019-03-15T14:35:33.019Z,6.17
2019-03-15T14:38:01.540Z,6.40
2019-03-15T14:40:29.915Z,6.00
2019-03-15T14:42:59.888Z,6.03
2019-03-15T14:45:28.707Z,6.47
2019-03-15T14:47:58.054Z,6.80
2019-03-15T14:50:29.188Z,6.17
2019-03-15T14:52:57.432Z,5.57
2019-03-15T14:55:25.637Z,6.25
2019-03-15T14:57:53.860Z,5.87
2019-03-15T15:00:22.079Z,6.55
2019-03-15T15:02:50.286Z,6.35
2019-03-15T15:05:18.552Z,6.17
2019-03-15T15:07:46.791Z,6.72
2019-03-15T15:10:16.023Z,6.10
2019-03-15T15:12:44.247Z,6.40
2019-03-15T15:15:14.558Z,6.23
2019-03-15T15:17:43.374Z,6.53
2019-03-15T15:20:12.315Z,6.00
2019-03-15T15:22:40.536Z,6.28
2019-03-15T15:25:16.082Z,6.20
2019-03-15T15:27:44.341Z,6.05
2019-03-15T15:30:14.332Z,6.97
2019-03-15T15:32:42.578Z,6.90
2019-03-15T15:35:28.478Z,6.47
2019-03-15T15:37:56.700Z,6.50
2019-03-15T15:40:24.955Z,6.53
2019-03-15T15:42:53.179Z,6.33
2019-03-15T15:45:21.820Z,6.75
2019-03-15T15:47:50.034Z,6.22
2019-03-15T15:50:18.261Z,6.47
2019-03-15T15:52:46.470Z,6.67
2019-03-15T15:55:15.737Z,6.53
2019-03-15T15:57:43.978Z,6.17
2019-03-15T16:00:16.370Z,6.92
2019-03-15T16:02:44.583Z,6.62
2019-03-15T16:05:12.804Z,6.85
2019-03-15T16:07:41.099Z,6.47
2019-03-15T16:10:12.561Z,6.45
2019-03-15T16:12:40.795Z,6.72
2019-03-15T16:15:11.343Z,7.28
2019-03-15T16:17:39.539Z,6.78
2019-03-15T16:20:09.719Z,7.03
2019-03-15T16:22:38.121Z,7.23
2019-03-15T16:25:10.576Z,6.80
2019-03-15T16:27:38.788Z,7.25
2019-03-15T16:30:10.258Z,6.92
2019-03-15T16:32:38.514Z,6.35
2019-03-15T16:35:09.359Z,7.22
2019-03-15T16:37:37.570Z,7.55
2019-03-15T16:40:08.504Z,6.87
2019-03-15T16:42:36.811Z,6.70
2019-03-15T16:45:16.415Z,7.08
2019-03-15T16:47:44.626Z,6.33
2019-03-15T16:50:13.412Z,6.70
2019-03-15T16:52:41.655Z,6.55
2019-03-15T16:55:11.378Z,7.17
2019-03-15T16:57:39.593Z,6.70
2019-03-15T17:00:14.583Z,5.87
2019-03-15T17:02:42.805Z,6.90
2019-03-15T17:05:12.294Z,6.78
2019-03-15T17:07:40.506Z,6.90
2019-03-15T17:10:16.475Z,6.72
2019-03-15T17:12:44.766Z,7.22
2019-03-15T17:15:15.164Z,6.65
2019-03-15T17:17:43.388Z,7.30
2019-03-15T17:20:12.088Z,6.83
2019-03-15T17:22:40.292Z,6.30
2019-03-15T17:25:11.113Z,6.95
2019-03-15T17:27:39.338Z,6.87
2019-03-15T17:30:12.933Z,7.00
2019-03-15T17:32:41.145Z,8.40
2019-03-15T17:35:13.916Z,6.95
2019-03-15T17:37:42.422Z,7.42
2019-03-15T17:40:12.865Z,7.10
2019-03-15T17:42:41.071Z,7.20
2019-03-15T17:45:09.629Z,11.40
2019-03-15T17:47:37.865Z,8.13
2019-03-15T17:50:09.468Z,8.48
2019-03-15T17:52:37.717Z,7.22
2019-03-15T17:55:06.610Z,7.17
2019-03-15T17:57:35.722Z,8.00
2019-03-15T18:00:09.903Z,6.62
2019-03-15T18:02:38.112Z,8.58
2019-03-15T18:05:08.062Z,6.95
2019-03-15T18:07:36.309Z,6.45
2019-03-15T18:10:06.900Z,7.25
2019-03-15T18:12:35.119Z,6.72
2019-03-15T18:15:04.003Z,7.12
2019-03-15T18:17:32.226Z,6.83
2019-03-15T18:20:00.607Z,7.22
2019-03-15T18:22:28.850Z,7.15
2019-03-15T18:24:57.084Z,7.15
2019-03-15T18:27:25.415Z,6.65
2019-03-15T18:29:53.681Z,7.75
2019-03-15T18:32:22.906Z,7.45
2019-03-15T18:34:51.112Z,7.42
2019-03-15T18:37:19.325Z,7.70
2019-03-15T18:39:47.635Z,7.15
2019-03-15T18:42:15.848Z,7.12
2019-03-15T18:44:44.051Z,7.65
2019-03-15T18:47:12.265Z,7.50
2019-03-15T18:49:40.498Z,7.70
2019-03-15T18:52:08.706Z,6.90
2019-03-15T18:54:38.107Z,7.95
2019-03-15T18:57:06.431Z,7.85
2019-03-15T18:59:39.995Z,7.70
2019-03-15T19:02:04.576Z,6.53
2019-03-15T19:04:32.775Z,7.03
2019-03-15T19:07:01.005Z,7.47
2019-03-15T19:09:29.335Z,7.47
2019-03-15T19:11:57.555Z,6.92
2019-03-15T19:14:25.770Z,7.20
2019-03-15T19:16:53.995Z,6.90
2019-03-15T19:19:23.260Z,8.20
2019-03-15T19:21:51.485Z,6.95
2019-03-15T19:24:19.694Z,7.08
2019-03-15T19:26:47.984Z,6.85
2019-03-15T19:29:16.200Z,7.17
2019-03-15T19:31:44.430Z,7.47
2019-03-15T19:34:12.661Z,7.25
2019-03-15T19:36:40.870Z,7.17
2019-03-15T19:39:09.096Z,6.60
2019-03-15T19:41:37.328Z,6.73
2019-03-15T19:44:05.744Z,6.87
2019-03-15T19:46:34.073Z,7.55
2019-03-15T19:49:02.317Z,8.20
2019-03-15T19:51:30.532Z,7.72
2019-03-15T19:53:58.750Z,7.80
2019-03-15T19:56:26.974Z,7.50
2019-03-15T19:58:55.184Z,6.92
2019-03-15T20:01:23.593Z,7.58
2019-03-15T20:03:51.799Z,7.83
2019-03-15T20:06:20.036Z,7.22
2019-03-15T20:08:48.259Z,7.33
2019-03-15T20:11:16.493Z,7.80
2019-03-15T20:13:44.700Z,7.65
2019-03-15T20:16:12.917Z,7.75
2019-03-15T20:18:41.142Z,7.80
2019-03-15T20:21:09.391Z,7.92
2019-03-15T20:23:37.602Z,7.85
2019-03-15T20:26:05.807Z,8.00
2019-03-15T20:28:35.115Z,7.30
2019-03-15T20:31:03.328Z,7.03
2019-03-15T20:33:31.538Z,7.28
2019-03-15T20:35:59.769Z,6.80
2019-03-15T20:38:27.992Z,8.50
2019-03-15T20:40:56.199Z,8.20
2019-03-15T20:43:24.405Z,6.90
2019-03-15T20:45:52.614Z,7.35
2019-03-15T20:48:20.823Z,8.08
2019-03-15T20:50:50.021Z,7.50
2019-03-15T20:53:18.220Z,8.40
2019-03-15T20:55:47.418Z,7.72
2019-03-15T20:58:15.701Z,7.55
2019-03-15T21:00:43.928Z,8.03
2019-03-15T21:03:12.143Z,7.80
2019-03-15T21:05:40.356Z,7.65
2019-03-15T21:08:08.581Z,7.83
2019-03-15T21:10:36.788Z,7.50
2019-03-15T21:13:05.003Z,7.30
2019-03-15T21:15:33.212Z,7.75
2019-03-15T21:18:01.426Z,7.35
2019-03-15T21:20:29.658Z,6.65
2019-03-15T21:22:57.877Z,6.95
2019-03-15T21:25:26.094Z,8.18
2019-03-15T21:27:55.484Z,6.97
2019-03-15T21:30:27.686Z,7.04
2019-03-15T21:32:55.872Z,7.92
2019-03-15T21:35:24.361Z,7.67
2019-03-15T21:37:52.583Z,7.42
2019-03-15T21:40:21.961Z,8.13
2019-03-15T21:42:50.176Z,8.23
2019-03-15T21:45:18.569Z,7.55
2019-03-15T21:47:46.778Z,8.00
2019-03-15T21:50:19.474Z,7.83
2019-03-15T21:52:47.648Z,7.67
2019-03-15T21:55:15.869Z,7.20
2019-03-15T21:57:44.097Z,7.10
2019-03-15T22:00:17.280Z,7.55
2019-03-15T22:02:45.490Z,7.33
2019-03-15T22:05:13.708Z,7.80
2019-03-15T22:07:41.926Z,8.45
2019-03-15T22:10:13.833Z,6.53
2019-03-15T22:12:42.115Z,7.75
2019-03-15T22:15:13.703Z,7.53
2019-03-15T22:17:42.023Z,7.30
2019-03-15T22:20:17.832Z,8.45
2019-03-15T22:22:46.037Z,7.33
2019-03-15T22:25:14.251Z,7.22
2019-03-15T22:27:42.463Z,7.03
2019-03-15T22:30:12.883Z,6.62
2019-03-15T22:32:41.113Z,7.08
2019-03-15T22:35:09.303Z,7.83
2019-03-15T22:37:37.524Z,7.58
2019-03-15T22:40:10.682Z,7.20
2019-03-15T22:42:38.902Z,7.30
2019-03-15T22:45:11.657Z,7.58
2019-03-15T22:47:39.890Z,7.10
2019-03-15T22:50:09.705Z,7.83
2019-03-15T22:52:37.964Z,8.10
2019-03-15T22:55:08.224Z,7.42
2019-03-15T22:57:36.436Z,7.83
2019-03-15T23:00:13.661Z,7.70
2019-03-15T23:02:41.911Z,8.53
2019-03-15T23:05:10.127Z,8.20
2019-03-15T23:07:38.331Z,7.80
2019-03-15T23:10:08.687Z,8.20
2019-03-15T23:12:36.942Z,7.57
2019-03-15T23:15:07.612Z,7.43
2019-03-15T23:17:36.051Z,7.28
2019-03-15T23:20:08.661Z,7.10
2019-03-15T23:22:36.870Z,7.20
2019-03-15T23:25:06.616Z,7.35
2019-03-15T23:27:34.847Z,8.45
2019-03-15T23:30:03.116Z,7.00
2019-03-15T23:32:31.334Z,7.27
2019-03-15T23:34:59.572Z,6.80
2019-03-15T23:37:27.812Z,7.50
2019-03-15T23:39:56.067Z,7.50
2019-03-15T23:42:24.282Z,6.60
2019-03-15T23:44:52.522Z,7.30
2019-03-15T23:47:20.872Z,6.83
2019-03-15T23:49:49.079Z,7.05
2019-03-15T23:52:17.330Z,7.60
2019-03-15T23:54:45.574Z,7.30
2019-03-15T23:57:13.801Z,7.72
2019-03-15T23:59:42.012Z,7.60
